Time;durP1;ratioP1;P1;durP2;ratioP2;P2;SDS_P1;SDS_P2;PMS_P1;PMS_P2;Temp;Humidity;BMP_temperature;BMP_pressure;BME280_temperature;BME280_humidity;BME280_pressure;Samples;Min_cycle;Max_cycle;Signal;HPM_P1;HPM_P2
2023/12/10 00:02:12;;;;;;;20.30;12.50;;;;;;;-2.59;100.00;100691.86;104995;1258;60576;-51
2023/12/10 00:04:40;;;;;;;24.00;12.80;;;;;;;-2.56;100.00;100691.73;104973;1257;60407;-51
2023/12/10 00:07:08;;;;;;;25.70;14.60;;;;;;;-2.56;100.00;100686.83;104938;1258;73043;-51
2023/12/10 00:09:35;;;;;;;22.50;12.30;;;;;;;-2.58;100.00;100692.75;105041;1253;67724;-52
2023/12/10 00:12:03;;;;;;;25.00;14.00;;;;;;;-2.60;100.00;100690.61;104863;1259;72503;-52
2023/12/10 00:14:31;;;;;;;23.30;14.00;;;;;;;-2.60;100.00;100689.90;104950;1254;60925;-52
2023/12/10 00:16:58;;;;;;;24.40;15.10;;;;;;;-2.61;100.00;100695.68;104971;1252;60547;-51
2023/12/10 00:19:27;;;;;;;21.50;13.30;;;;;;;-2.63;100.00;100699.85;104909;1257;71798;-52
2023/12/10 00:21:55;;;;;;;22.50;11.80;;;;;;;-2.65;100.00;100700.89;105304;1258;66433;-51
2023/12/10 00:24:23;;;;;;;22.90;12.50;;;;;;;-2.66;100.00;100697.16;106738;1257;71772;-52
2023/12/10 00:26:50;;;;;;;22.40;12.00;;;;;;;-2.67;100.00;100685.39;105276;1259;61496;-51
2023/12/10 00:29:18;;;;;;;18.30;11.50;;;;;;;-2.67;100.00;100691.73;104818;1254;60550;-52
2023/12/10 00:31:45;;;;;;;21.40;10.90;;;;;;;-2.65;100.00;100691.05;104816;1255;72659;-52
2023/12/10 00:34:13;;;;;;;20.10;11.60;;;;;;;-2.63;100.00;100694.59;105091;1259;65800;-51
2023/12/10 00:36:41;;;;;;;20.40;11.60;;;;;;;-2.61;100.00;100686.37;104841;1254;70769;-50
2023/12/10 00:39:09;;;;;;;16.20;10.60;;;;;;;-2.59;100.00;100686.41;108960;1254;58638;-52
2023/12/10 00:41:39;;;;;;;24.20;13.00;;;;;;;-2.58;100.00;100681.33;104247;1259;3556290;-52
2023/12/10 00:46:45;;;;;;;22.30;11.90;;;;;;;-2.56;100.00;100762.21;101635;1292;601653;-51
2023/12/10 00:49:13;;;;;;;22.20;12.10;;;;;;;-2.56;100.00;100768.54;103892;1266;59672;-52
2023/12/10 00:51:40;;;;;;;22.10;12.50;;;;;;;-2.57;100.00;100761.67;104884;1257;59082;-51
2023/12/10 00:54:08;;;;;;;26.80;13.90;;;;;;;-2.59;100.00;100758.81;104914;1254;72258;-52
2023/12/10 00:56:35;;;;;;;22.80;12.90;;;;;;;-2.62;100.00;100757.69;104849;1253;66949;-51
2023/12/10 00:59:03;;;;;;;27.10;14.60;;;;;;;-2.67;100.00;100751.28;104954;1253;72244;-51
2023/12/10 01:01:30;;;;;;;21.10;11.70;;;;;;;-2.68;100.00;100747.02;102594;1251;3411748;-52
2023/12/10 01:03:58;;;;;;;18.20;11.10;;;;;;;-2.69;100.00;100734.36;109280;1250;57207;-52
2023/12/10 01:06:26;;;;;;;20.10;12.40;;;;;;;-2.69;100.00;100728.73;109291;1251;57155;-51
2023/12/10 01:08:53;;;;;;;18.70;10.80;;;;;;;-2.68;100.00;100731.05;106051;1256;67441;-52
2023/12/10 01:11:21;;;;;;;20.40;11.90;;;;;;;-2.66;100.00;100723.17;104849;1251;70721;-51
2023/12/10 01:13:48;;;;;;;16.30;11.20;;;;;;;-2.63;100.00;100717.95;105091;1256;61122;-51
2023/12/10 01:16:16;;;;;;;18.30;11.20;;;;;;;-2.60;100.00;100721.36;105116;1253;60935;-51
2023/12/10 01:18:44;;;;;;;21.80;11.50;;;;;;;-2.57;100.00;100715.98;109227;1252;72747;-51
2023/12/10 01:21:12;;;;;;;20.60;11.30;;;;;;;-2.54;100.00;100717.24;109230;1253;66924;-51
2023/12/10 01:23:39;;;;;;;19.30;11.40;;;;;;;-2.53;100.00;100712.69;107686;1252;73587;-51
2023/12/10 01:26:07;;;;;;;18.50;11.50;;;;;;;-2.52;100.00;100711.33;105017;1257;59716;-51
2023/12/10 01:28:34;;;;;;;22.70;13.90;;;;;;;-2.51;100.00;100717.49;109171;1251;60062;-51
2023/12/10 01:31:02;;;;;;;18.90;12.60;;;;;;;-2.52;100.00;100714.83;109297;1251;74665;-52
2023/12/10 01:33:30;;;;;;;21.30;13.70;;;;;;;-2.54;100.00;100710.93;107485;1253;69313;-51
2023/12/10 01:35:57;;;;;;;20.30;14.20;;;;;;;-2.56;100.00;100704.94;105139;1253;73123;-51
2023/12/10 01:38:25;;;;;;;22.00;14.60;;;;;;;-2.58;100.00;100704.01;105020;1252;59822;-51
2023/12/10 01:40:53;;;;;;;22.70;13.80;;;;;;;-2.61;100.00;100707.63;104913;1254;62155;-51
2023/12/10 01:43:20;;;;;;;22.30;12.90;;;;;;;-2.63;100.00;100705.65;105024;1256;71854;-51
2023/12/10 01:45:50;;;;;;;21.10;13.50;;;;;;;-2.64;100.00;100705.83;104974;1253;67390;-51
2023/12/10 01:48:23;;;;;;;20.80;13.30;;;;;;;-2.66;100.00;100705.61;105153;1256;72740;-50
2023/12/10 01:50:51;;;;;;;23.30;12.60;;;;;;;-2.68;100.00;100708.55;105258;1253;59737;-51
2023/12/10 01:53:18;;;;;;;23.70;12.80;;;;;;;-2.70;100.00;100697.09;105392;1256;59931;-50
2023/12/10 01:55:46;;;;;;;21.70;13.10;;;;;;;-2.68;100.00;100699.23;104912;1256;73203;-50
2023/12/10 01:58:13;;;;;;;18.70;12.10;;;;;;;-2.63;100.00;100695.64;105087;1256;66799;-52
2023/12/10 02:00:41;;;;;;;19.70;12.90;;;;;;;-2.61;100.00;100692.17;105138;1256;71473;-51
2023/12/10 02:03:08;;;;;;;19.70;13.10;;;;;;;-2.59;100.00;100694.84;105148;1256;59568;-51
2023/12/10 02:05:36;;;;;;;21.90;14.00;;;;;;;-2.58;100.00;100689.24;105293;1253;59888;-51
2023/12/10 02:08:04;;;;;;;28.60;15.30;;;;;;;-2.57;100.00;100687.69;104890;1256;73092;-51
2023/12/10 02:10:32;;;;;;;21.00;13.80;;;;;;;-2.57;100.00;100689.44;104911;1253;66700;-52
2023/12/10 02:12:59;;;;;;;23.30;14.60;;;;;;;-2.60;100.00;100682.52;105093;1252;73985;-51
2023/12/10 02:15:30;;;;;;;22.20;14.20;;;;;;;-2.62;100.00;100681.25;105501;1253;59622;-50
2023/12/10 02:17:57;;;;;;;28.00;15.40;;;;;;;-2.65;100.00;100680.69;104955;1255;59736;-52
2023/12/10 02:20:25;;;;;;;24.00;14.00;;;;;;;-2.68;100.00;100677.98;105040;1253;73109;-52
2023/12/10 02:22:58;;;;;;;25.20;14.30;;;;;;;-2.71;100.00;100679.67;104957;1252;64588;-52
2023/12/10 02:25:33;;;;;;;25.70;13.30;;;;;;;-2.72;100.00;100679.30;104994;1254;71420;-51
2023/12/10 02:28:02;;;;;;;22.50;13.50;;;;;;;-2.72;100.00;100683.67;105051;1253;61340;-50
2023/12/10 02:30:30;;;;;;;22.00;12.40;;;;;;;-2.73;100.00;100682.80;105656;1256;59680;-51
2023/12/10 02:32:58;;;;;;;24.70;13.00;;;;;;;-2.71;100.00;100671.23;104899;1257;73183;-51
2023/12/10 02:35:26;;;;;;;20.50;11.70;;;;;;;-2.68;100.00;100663.94;105841;1256;67125;-52
2023/12/10 02:37:54;;;;;;;22.00;13.40;;;;;;;-2.64;100.00;100660.84;105719;1253;72710;-53
2023/12/10 02:40:21;;;;;;;20.00;12.60;;;;;;;-2.58;100.00;100662.90;105238;1258;59668;-51
2023/12/10 02:42:49;;;;;;;23.60;14.30;;;;;;;-2.54;100.00;100668.23;104952;1256;60673;-51
2023/12/10 02:45:17;;;;;;;26.40;14.10;;;;;;;-2.52;100.00;100674.41;105028;1253;73138;-54
2023/12/10 02:47:44;;;;;;;22.80;12.90;;;;;;;-2.54;100.00;100677.00;106344;1254;66941;-52
2023/12/10 02:50:12;;;;;;;27.50;15.70;;;;;;;-2.58;100.00;100672.02;105074;1253;71357;-50
2023/12/10 02:52:40;;;;;;;28.20;14.60;;;;;;;-2.59;100.00;100671.29;105034;1256;59662;-51
2023/12/10 02:55:11;;;;;;;23.50;14.30;;;;;;;-2.63;100.00;100669.64;104974;1253;60465;-51
2023/12/10 02:57:38;;;;;;;23.60;15.30;;;;;;;-2.66;100.00;100667.31;105012;1256;75426;-52
2023/12/10 03:00:08;;;;;;;27.40;15.30;;;;;;;-2.68;100.00;100669.55;104921;1256;66734;-51
2023/12/10 03:02:36;;;;;;;21.60;13.40;;;;;;;-2.71;100.00;100667.89;106809;1251;72584;-52
2023/12/10 03:05:04;;;;;;;22.60;12.90;;;;;;;-2.72;100.00;100660.14;106148;1254;59739;-53
2023/12/10 03:07:32;;;;;;;22.50;13.60;;;;;;;-2.72;100.00;100661.74;105637;1256;59563;-52
2023/12/10 03:10:00;;;;;;;21.70;13.60;;;;;;;-2.69;100.00;100656.34;105310;1252;71756;-54
2023/12/10 03:12:27;;;;;;;20.80;14.00;;;;;;;-2.68;100.00;100652.50;105067;1256;65641;-52
2023/12/10 03:14:55;;;;;;;21.00;12.60;;;;;;;-2.66;100.00;100647.45;105354;1253;72709;-52
2023/12/10 03:17:22;;;;;;;25.10;13.10;;;;;;;-2.62;100.00;100652.96;105008;1256;63312;-51
2023/12/10 03:19:50;;;;;;;21.40;12.80;;;;;;;-2.59;100.00;100656.17;105130;1251;59602;-52
2023/12/10 03:22:17;;;;;;;23.10;13.40;;;;;;;-2.56;100.00;100659.23;104732;1253;75348;-52
2023/12/10 03:24:45;;;;;;;26.30;14.00;;;;;;;-2.53;100.00;100656.98;104993;1251;65147;-52
2023/12/10 03:27:12;;;;;;;22.40;13.70;;;;;;;-2.53;100.00;100662.80;104986;1258;71431;-52
2023/12/10 03:29:40;;;;;;;24.70;14.40;;;;;;;-2.53;100.00;100661.55;105085;1256;59743;-54
2023/12/10 03:32:07;;;;;;;22.00;14.10;;;;;;;-2.57;100.00;100662.73;104926;1257;60078;-53
2023/12/10 03:34:35;;;;;;;22.90;13.80;;;;;;;-2.61;100.00;100663.17;104981;1256;71464;-53
2023/12/10 03:37:02;;;;;;;28.60;15.20;;;;;;;-2.64;100.00;100662.42;104983;1256;67609;-54
2023/12/10 03:39:30;;;;;;;25.60;13.90;;;;;;;-2.67;100.00;100662.53;105085;1256;71034;-53
2023/12/10 03:41:58;;;;;;;26.30;15.50;;;;;;;-2.71;100.00;100662.27;104877;1253;59921;-53
2023/12/10 03:44:25;;;;;;;21.30;11.80;;;;;;;-2.73;100.00;100665.42;104944;1251;59757;-52
2023/12/10 03:46:52;;;;;;;21.50;13.50;;;;;;;-2.74;100.00;100666.63;105061;1256;72038;-53
2023/12/10 03:49:20;;;;;;;21.60;11.70;;;;;;;-2.74;100.00;100659.77;104923;1254;66928;-53
2023/12/10 03:51:48;;;;;;;20.40;12.70;;;;;;;-2.73;100.00;100656.80;104927;1256;72859;-53
2023/12/10 03:54:15;;;;;;;23.90;13.40;;;;;;;-2.72;100.00;100660.33;104883;1256;59766;-53
2023/12/10 03:56:43;;;;;;;21.30;12.60;;;;;;;-2.69;100.00;100654.06;109054;1251;58777;-53
2023/12/10 03:59:10;;;;;;;19.00;11.40;;;;;;;-2.65;100.00;100646.25;109127;1251;72112;-53
2023/12/10 04:01:44;;;;;;;23.90;12.70;;;;;;;-2.61;100.00;100644.89;108506;1253;65763;-54
2023/12/10 04:04:12;;;;;;;25.60;13.70;;;;;;;-2.59;100.00;100648.64;109209;1251;71483;-53
2023/12/10 04:06:40;;;;;;;21.80;13.10;;;;;;;-2.56;100.00;100643.95;109163;1253;57667;-54
2023/12/10 04:09:08;;;;;;;22.30;12.50;;;;;;;-2.55;100.00;100643.08;109217;1253;60072;-54
2023/12/10 04:11:36;;;;;;;23.60;13.90;;;;;;;-2.56;100.00;100643.06;105655;1253;73097;-53
2023/12/10 04:14:09;;;;;;;23.50;13.30;;;;;;;-2.59;100.00;100641.44;109161;1251;65567;-54
2023/12/10 04:16:37;;;;;;;25.90;15.70;;;;;;;-2.61;100.00;100641.55;108341;1254;70568;-52
2023/12/10 04:19:04;;;;;;;24.20;14.90;;;;;;;-2.64;100.00;100642.04;109108;1252;59196;-54
2023/12/10 04:21:32;;;;;;;24.70;14.00;;;;;;;-2.66;100.00;100641.30;109199;1256;60831;-54
2023/12/10 04:24:00;;;;;;;28.00;15.10;;;;;;;-2.68;100.00;100638.10;109252;1251;73101;-54
2023/12/10 04:26:27;;;;;;;23.50;13.00;;;;;;;-2.67;100.00;100641.46;106221;1256;66736;-53
2023/12/10 04:28:55;;;;;;;23.80;12.60;;;;;;;-2.67;100.00;100643.91;108987;1253;72743;-53
2023/12/10 04:31:22;;;;;;;23.20;12.10;;;;;;;-2.65;100.00;100647.13;109153;1254;61286;-54
2023/12/10 04:33:50;;;;;;;21.20;13.30;;;;;;;-2.63;100.00;100641.17;109171;1256;59997;-54
2023/12/10 04:36:17;;;;;;;19.70;11.50;;;;;;;-2.60;100.00;100642.45;109157;1251;73189;-53
2023/12/10 04:38:46;;;;;;;23.90;13.00;;;;;;;-2.58;100.00;100647.07;106539;1256;66866;-52
2023/12/10 04:41:13;;;;;;;18.40;10.80;;;;;;;-2.56;100.00;100653.09;105456;1256;71465;-53
2023/12/10 04:43:41;;;;;;;24.40;11.60;;;;;;;-2.52;100.00;100656.84;104989;1259;59734;-53
2023/12/10 04:46:08;;;;;;;19.70;11.50;;;;;;;-2.50;100.00;100657.07;105036;1257;60061;-52
2023/12/10 04:48:36;;;;;;;22.40;13.00;;;;;;;-2.48;100.00;100654.65;104879;1256;73581;-52
2023/12/10 04:51:04;;;;;;;24.90;13.70;;;;;;;-2.48;100.00;100656.42;104923;1253;65891;-53
2023/12/10 04:53:32;;;;;;;27.70;13.80;;;;;;;-2.48;100.00;100656.23;104794;1256;72840;-52
2023/12/10 04:55:59;;;;;;;23.90;13.80;;;;;;;-2.49;100.00;100667.80;104889;1253;60439;-52
2023/12/10 04:58:27;;;;;;;23.00;14.10;;;;;;;-2.51;100.00;100666.36;104862;1256;60539;-52
2023/12/10 05:00:54;;;;;;;24.90;13.70;;;;;;;-2.53;100.00;100671.41;104933;1259;72461;-53
2023/12/10 05:03:22;;;;;;;28.40;15.10;;;;;;;-2.55;100.00;100673.66;105042;1253;65818;-52
2023/12/10 05:05:50;;;;;;;25.50;13.50;;;;;;;-2.57;100.00;100669.06;104979;1256;72688;-52
2023/12/10 05:08:17;;;;;;;23.90;12.60;;;;;;;-2.59;100.00;100674.99;104759;1257;60753;-52
2023/12/10 05:10:45;;;;;;;23.30;12.70;;;;;;;-2.60;100.00;100677.94;105129;1257;60350;-52
2023/12/10 05:13:12;;;;;;;26.90;13.10;;;;;;;-2.61;100.00;100677.23;104971;1256;72673;-52
2023/12/10 05:15:40;;;;;;;22.00;12.80;;;;;;;-2.59;100.00;100677.80;105113;1252;66770;-53
2023/12/10 05:18:07;;;;;;;19.90;13.10;;;;;;;-2.57;100.00;100671.86;105010;1256;71993;-54
2023/12/10 05:20:35;;;;;;;21.90;12.90;;;;;;;-2.56;100.00;100672.42;105189;1257;61146;-54
2023/12/10 05:23:02;;;;;;;23.40;13.60;;;;;;;-2.54;100.00;100671.02;104900;1253;60432;-53
2023/12/10 05:25:30;;;;;;;26.70;14.50;;;;;;;-2.52;100.00;100676.70;104954;1256;72654;-52
2023/12/10 05:27:58;;;;;;;25.20;14.90;;;;;;;-2.51;100.00;100680.59;104857;1254;66163;-52
2023/12/10 05:30:27;;;;;;;25.20;13.60;;;;;;;-2.50;100.00;100683.42;104881;1254;71895;-53
2023/12/10 05:32:55;;;;;;;25.20;14.10;;;;;;;-2.51;100.00;100682.88;104961;1253;60387;-52
2023/12/10 05:35:23;;;;;;;27.90;15.00;;;;;;;-2.53;100.00;100687.94;104973;1254;60549;-52
2023/12/10 05:37:50;;;;;;;31.50;15.80;;;;;;;-2.55;100.00;100684.91;104884;1256;75881;-53
2023/12/10 05:40:18;;;;;;;23.30;14.60;;;;;;;-2.56;100.00;100679.44;105035;1256;65676;-54
2023/12/10 05:42:45;;;;;;;36.40;16.20;;;;;;;-2.60;100.00;100676.20;105019;1256;73889;-53
2023/12/10 05:45:13;;;;;;;22.90;15.00;;;;;;;-2.62;100.00;100669.64;105243;1257;61707;-53
2023/12/10 05:47:40;;;;;;;31.70;15.80;;;;;;;-2.64;100.00;100667.69;105522;1256;60402;-52
2023/12/10 05:50:08;;;;;;;24.30;13.50;;;;;;;-2.64;100.00;100665.93;104904;1257;73942;-53
2023/12/10 05:52:36;;;;;;;24.60;14.80;;;;;;;-2.63;100.00;100667.69;104955;1258;66947;-52
2023/12/10 05:55:04;;;;;;;25.70;13.90;;;;;;;-2.62;100.00;100668.60;105001;1256;72984;-53
2023/12/10 05:57:32;;;;;;;23.00;12.30;;;;;;;-2.61;100.00;100671.61;105470;1256;60900;-53
2023/12/10 05:59:59;;;;;;;23.60;13.30;;;;;;;-2.61;100.00;100675.13;105237;1256;63131;-53
2023/12/10 06:02:27;;;;;;;22.80;12.70;;;;;;;-2.58;100.00;100676.95;104936;1256;74359;-53
2023/12/10 06:04:55;;;;;;;26.10;13.90;;;;;;;-2.55;100.00;100679.81;107497;1254;67510;-53
2023/12/10 06:07:22;;;;;;;21.60;13.00;;;;;;;-2.52;100.00;100679.34;104964;1257;72749;-53
2023/12/10 06:09:50;;;;;;;27.30;13.10;;;;;;;-2.49;100.00;100681.69;104967;1266;60479;-53
2023/12/10 06:12:17;;;;;;;20.50;13.40;;;;;;;-2.49;100.00;100685.39;105761;1256;60443;-53
2023/12/10 06:14:45;;;;;;;21.30;14.40;;;;;;;-2.48;100.00;100688.75;104995;1256;72988;-53
2023/12/10 06:17:12;;;;;;;20.60;13.20;;;;;;;-2.50;100.00;100683.96;105056;1257;66296;-52
2023/12/10 06:19:40;;;;;;;23.00;12.40;;;;;;;-2.53;100.00;100686.52;104902;1253;71429;-52
2023/12/10 06:22:08;;;;;;;24.60;14.30;;;;;;;-2.56;100.00;100679.80;104793;1257;61129;-52
2023/12/10 06:24:35;;;;;;;25.70;14.80;;;;;;;-2.60;100.00;100680.23;104859;1257;62198;-53
2023/12/10 06:27:03;;;;;;;21.10;12.60;;;;;;;-2.64;100.00;100678.05;104994;1257;74796;-53
2023/12/10 06:29:30;;;;;;;23.90;12.60;;;;;;;-2.70;100.00;100680.91;105222;1256;65772;-53
2023/12/10 06:31:58;;;;;;;20.30;11.50;;;;;;;-2.74;100.00;100683.49;104996;1260;72685;-53
2023/12/10 06:34:26;;;;;;;21.20;12.30;;;;;;;-2.75;100.00;100679.61;104879;1264;60438;-51
2023/12/10 06:36:53;;;;;;;23.10;12.50;;;;;;;-2.74;100.00;100676.98;104916;1256;60531;-51
2023/12/10 06:39:21;;;;;;;20.10;11.90;;;;;;;-2.74;100.00;100672.96;106078;1256;72636;-52
2023/12/10 06:41:49;;;;;;;21.00;11.70;;;;;;;-2.72;100.00;100673.15;105190;1256;69010;-53
2023/12/10 06:44:21;;;;;;;17.40;12.30;;;;;;;-2.69;100.00;100671.63;104872;1256;72752;-51
2023/12/10 06:46:49;;;;;;;19.30;12.00;;;;;;;-2.67;100.00;100678.02;105019;1253;60443;-52
2023/12/10 06:49:17;;;;;;;19.70;12.00;;;;;;;-2.65;100.00;100673.31;104880;1257;61716;-53
2023/12/10 06:51:45;;;;;;;21.30;12.60;;;;;;;-2.63;100.00;100676.66;107458;1251;76231;-54
2023/12/10 06:54:12;;;;;;;19.90;13.20;;;;;;;-2.61;100.00;100674.95;105021;1256;68556;-53
2023/12/10 06:56:40;;;;;;;17.20;10.30;;;;;;;-2.60;100.00;100674.60;104840;1257;73128;-53
2023/12/10 06:59:08;;;;;;;25.40;12.50;;;;;;;-2.60;100.00;100671.09;106421;1257;60571;-53
2023/12/10 07:01:37;;;;;;;25.10;13.80;;;;;;;-2.62;100.00;100667.02;104841;1264;60451;-53
2023/12/10 07:04:08;;;;;;;22.50;12.90;;;;;;;-2.64;100.00;100668.58;108699;1257;73841;-53
2023/12/10 07:06:36;;;;;;;19.70;11.70;;;;;;;-2.64;100.00;100674.02;105050;1260;66153;-51
2023/12/10 07:09:06;;;;;;;24.40;13.10;;;;;;;-2.63;100.00;100679.29;104744;1261;72706;-52
2023/12/10 07:11:34;;;;;;;22.00;13.10;;;;;;;-2.60;100.00;100677.42;108786;1252;60901;-52
2023/12/10 07:14:01;;;;;;;24.60;12.80;;;;;;;-2.58;100.00;100683.09;105124;1256;60393;-52
2023/12/10 07:16:29;;;;;;;20.80;12.20;;;;;;;-2.55;100.00;100686.31;105028;1254;74519;-53
2023/12/10 07:18:57;;;;;;;22.80;12.40;;;;;;;-2.52;100.00;100685.66;109166;1251;67155;-54
2023/12/10 07:21:25;;;;;;;25.00;13.70;;;;;;;-2.48;100.00;100682.23;109113;1252;72519;-53
2023/12/10 07:23:52;;;;;;;23.60;13.00;;;;;;;-2.43;100.00;100683.02;109198;1253;58274;-53
2023/12/10 07:26:23;;;;;;;24.10;14.50;;;;;;;-2.42;100.00;100681.64;109141;1251;58809;-53
2023/12/10 07:28:51;;;;;;;24.00;13.80;;;;;;;-2.42;100.00;100681.29;109037;1258;72676;-53
2023/12/10 07:31:18;;;;;;;33.10;16.20;;;;;;;-2.42;100.00;100684.45;109154;1251;65749;-53
2023/12/10 07:33:46;;;;;;;27.10;14.90;;;;;;;-2.42;100.00;100687.80;109187;1251;71534;-53
2023/12/10 07:36:14;;;;;;;28.40;17.80;;;;;;;-2.41;100.00;100696.59;109135;1254;59047;-54
2023/12/10 07:38:42;;;;;;;29.10;17.60;;;;;;;-2.40;100.00;100700.30;109231;1251;60509;-53
2023/12/10 07:41:10;;;;;;;28.50;17.10;;;;;;;-2.40;100.00;100704.91;109041;1251;74315;-54
2023/12/10 07:43:37;;;;;;;30.60;16.60;;;;;;;-2.38;100.00;100702.45;109190;1251;66956;-53
2023/12/10 07:46:05;;;;;;;22.60;13.90;;;;;;;-2.36;100.00;100699.69;109165;1254;72158;-54
2023/12/10 07:48:33;;;;;;;28.30;15.40;;;;;;;-2.33;100.00;100706.79;109107;1252;59704;-54
2023/12/10 07:51:02;;;;;;;27.60;15.90;;;;;;;-2.28;100.00;100712.48;107643;1255;60618;-54
2023/12/10 07:53:29;;;;;;;24.40;14.70;;;;;;;-2.24;100.00;100717.84;104898;1257;72930;-54
2023/12/10 07:55:57;;;;;;;26.10;15.20;;;;;;;-2.20;100.00;100718.79;104857;1257;64736;-53
2023/12/10 07:58:24;;;;;;;25.40;16.50;;;;;;;-2.15;100.00;100719.06;105106;1257;73107;-53
2023/12/10 08:00:52;;;;;;;26.60;16.50;;;;;;;-2.08;100.00;100716.19;105192;1252;60456;-51
2023/12/10 08:03:19;;;;;;;30.90;18.10;;;;;;;-2.03;100.00;100716.80;105367;1251;60518;-52
2023/12/10 08:05:47;;;;;;;33.60;19.80;;;;;;;-2.02;100.00;100717.70;105014;1257;76841;-52
2023/12/10 08:08:14;;;;;;;28.90;19.00;;;;;;;-2.02;100.00;100720.70;105039;1254;64775;-54
2023/12/10 08:10:42;;;;;;;34.10;21.60;;;;;;;-2.03;100.00;100721.02;105117;1256;70924;-53
2023/12/10 08:13:09;;;;;;;41.00;23.10;;;;;;;-2.04;100.00;100717.15;104770;1257;60741;-53
2023/12/10 08:15:37;;;;;;;37.90;22.30;;;;;;;-2.05;100.00;100712.75;105266;1258;61313;-53
2023/12/10 08:18:05;;;;;;;36.90;21.80;;;;;;;-2.04;100.00;100716.80;104787;1253;74255;-52
2023/12/10 08:20:33;;;;;;;32.30;20.10;;;;;;;-2.04;100.00;100706.26;105168;1251;67458;-52
2023/12/10 08:23:01;;;;;;;32.80;19.10;;;;;;;-2.04;100.00;100699.22;104968;1257;73100;-54
2023/12/10 08:25:28;;;;;;;35.70;19.80;;;;;;;-2.03;100.00;100705.89;104957;1257;60494;-52
2023/12/10 08:27:58;;;;;;;24.60;16.80;;;;;;;-1.99;100.00;100704.92;105286;1251;60417;-52
2023/12/10 08:30:26;;;;;;;27.00;18.00;;;;;;;-1.96;100.00;100705.15;105212;1257;73893;-52
2023/12/10 08:32:54;;;;;;;27.10;16.10;;;;;;;-1.92;100.00;100701.01;104958;1257;67045;-52
2023/12/10 08:35:21;;;;;;;24.30;16.10;;;;;;;-1.86;100.00;100695.98;105060;1257;71439;-52
2023/12/10 08:37:49;;;;;;;23.50;15.80;;;;;;;-1.81;100.00;100693.27;104898;1258;60322;-52
2023/12/10 08:40:16;;;;;;;26.00;17.20;;;;;;;-1.75;100.00;100688.27;104934;1251;60505;-53
2023/12/10 08:42:44;;;;;;;22.20;15.10;;;;;;;-1.70;100.00;100690.45;104956;1251;73928;-53
2023/12/10 08:45:12;;;;;;;22.50;15.50;;;;;;;-1.64;100.00;100691.61;105103;1257;67056;-53
2023/12/10 08:47:39;;;;;;;21.90;13.80;;;;;;;-1.60;100.00;100689.38;105042;1254;75919;-53
2023/12/10 08:50:08;;;;;;;23.10;14.70;;;;;;;-1.56;100.00;100693.30;104772;1251;60546;-53
2023/12/10 08:52:35;;;;;;;22.10;14.40;;;;;;;-1.54;100.00;100691.06;104885;1257;60670;-53
2023/12/10 08:55:03;;;;;;;18.70;12.90;;;;;;;-1.51;100.00;100691.63;104983;1258;71675;-53
2023/12/10 08:57:31;;;;;;;20.10;13.40;;;;;;;-1.48;100.00;100686.58;105611;1257;65552;-53
2023/12/10 09:00:01;;;;;;;22.30;14.60;;;;;;;-1.43;100.00;100687.16;104985;1256;72987;-53
2023/12/10 09:02:29;;;;;;;17.00;10.40;;;;;;;-1.38;100.00;100687.08;105111;1257;60987;-51
2023/12/10 09:04:57;;;;;;;18.50;10.20;;;;;;;-1.30;100.00;100684.19;105157;1251;60428;-52
2023/12/10 09:07:26;;;;;;;12.20;8.40;;;;;;;-1.25;100.00;100687.24;105918;1252;73851;-53
2023/12/10 09:09:59;;;;;;;15.50;10.00;;;;;;;-1.21;100.00;100692.61;106190;1254;66004;-51
2023/12/10 09:12:28;;;;;;;18.50;11.10;;;;;;;-1.18;100.00;100691.75;105175;1257;71412;-51
2023/12/10 09:14:56;;;;;;;18.70;11.30;;;;;;;-1.15;100.00;100681.59;107128;1254;60550;-53
2023/12/10 09:17:24;;;;;;;18.80;12.00;;;;;;;-1.14;100.00;100669.63;105204;1256;60351;-53
2023/12/10 09:19:51;;;;;;;18.50;12.90;;;;;;;-1.16;100.00;100667.13;105044;1253;73912;-52
2023/12/10 09:22:19;;;;;;;34.80;20.80;;;;;;;-1.17;100.00;100668.34;104829;1257;66918;-53
2023/12/10 09:24:50;;;;;;;21.50;13.50;;;;;;;-1.18;100.00;100669.55;105057;1253;73236;-53
2023/12/10 09:27:18;;;;;;;20.20;12.00;;;;;;;-1.19;100.00;100667.96;104750;1256;60895;-52
2023/12/10 09:29:46;;;;;;;18.60;13.40;;;;;;;-1.16;100.00;100663.95;105858;1254;60434;-54
2023/12/10 09:32:16;;;;;;;19.70;13.00;;;;;;;-1.13;100.00;100655.56;105590;1254;74504;-52
2023/12/10 09:34:44;;;;;;;22.30;14.80;;;;;;;-1.08;100.00;100655.77;105005;1251;67411;-53
2023/12/10 09:37:14;;;;;;;23.20;14.60;;;;;;;-1.05;100.00;100654.23;105033;1257;72602;-53
2023/12/10 09:39:41;;;;;;;20.60;13.70;;;;;;;-1.05;100.00;100650.02;105954;1254;60514;-53
2023/12/10 09:42:09;;;;;;;24.50;15.40;;;;;;;-1.07;100.00;100651.21;104884;1256;60308;-53
2023/12/10 09:44:37;;;;;;;22.70;15.70;;;;;;;-1.09;100.00;100652.95;105030;1258;72922;-53
2023/12/10 09:47:08;;;;;;;20.30;14.10;;;;;;;-1.09;100.00;100649.06;105000;1251;67584;-52
2023/12/10 09:49:37;;;;;;;24.60;16.40;;;;;;;-1.11;100.00;100650.82;105049;1251;72830;-52
2023/12/10 09:52:06;;;;;;;24.70;15.00;;;;;;;-1.13;100.00;100650.61;105992;1256;61259;-52
2023/12/10 09:54:33;;;;;;;23.90;15.90;;;;;;;-1.13;100.00;100642.52;105436;1257;60600;-53
2023/12/10 09:57:01;;;;;;;24.00;15.30;;;;;;;-1.13;100.00;100637.59;104800;1257;74278;-52
2023/12/10 09:59:29;;;;;;;26.30;16.10;;;;;;;-1.11;100.00;100649.05;104948;1251;66997;-54
2023/12/10 10:01:57;;;;;;;23.40;15.10;;;;;;;-1.10;100.00;100651.52;105092;1257;72660;-52
2023/12/10 10:04:24;;;;;;;26.40;14.90;;;;;;;-1.09;100.00;100650.48;109115;1254;58328;-53
2023/12/10 10:06:52;;;;;;;25.10;15.60;;;;;;;-1.07;100.00;100644.17;109191;1254;59153;-53
2023/12/10 10:09:20;;;;;;;31.10;16.90;;;;;;;-1.05;100.00;100644.02;109201;1251;72578;-53
2023/12/10 10:12:01;;;;;;;28.50;15.70;;;;;;;-1.04;100.00;100639.99;105841;1256;67508;-52
2023/12/10 10:14:29;;;;;;;24.30;16.00;;;;;;;-1.07;100.00;100643.29;105195;1257;72875;-52
2023/12/10 10:16:56;;;;;;;28.50;17.80;;;;;;;-1.09;100.00;100646.41;105023;1258;60845;-52
2023/12/10 10:19:25;;;;;;;28.40;18.30;;;;;;;-1.10;100.00;100645.89;105136;1251;60482;-54
2023/12/10 10:21:53;;;;;;;23.70;14.70;;;;;;;-1.10;100.00;100643.95;109005;1251;72495;-53
2023/12/10 10:24:21;;;;;;;28.90;18.80;;;;;;;-1.10;100.00;100640.44;107114;1251;65057;-52
2023/12/10 10:26:49;;;;;;;28.20;16.50;;;;;;;-1.08;100.00;100635.52;109120;1254;72860;-53
2023/12/10 10:29:17;;;;;;;28.10;17.20;;;;;;;-1.06;100.00;100636.45;109245;1251;59685;-53
2023/12/10 10:31:44;;;;;;;22.60;15.50;;;;;;;-1.02;100.00;100635.60;106500;1251;59508;-53
2023/12/10 10:34:12;;;;;;;26.80;17.10;;;;;;;-0.99;100.00;100635.98;104828;1251;73873;-52
2023/12/10 10:36:40;;;;;;;29.20;18.40;;;;;;;-0.96;100.00;100637.27;104865;1251;65583;-51
2023/12/10 10:39:07;;;;;;;29.20;18.00;;;;;;;-0.97;100.00;100640.41;104989;1257;72683;-52
2023/12/10 10:41:35;;;;;;;31.00;19.40;;;;;;;-0.98;100.00;100640.94;104962;1251;60846;-51
2023/12/10 10:44:03;;;;;;;31.60;17.60;;;;;;;-0.99;100.00;100640.21;109168;1252;58712;-52
2023/12/10 10:46:30;;;;;;;32.30;18.70;;;;;;;-1.02;100.00;100638.59;109135;1252;72109;-54
2023/12/10 10:48:58;;;;;;;28.00;16.40;;;;;;;-1.05;100.00;100638.55;109115;1251;66926;-53
2023/12/10 10:51:26;;;;;;;28.20;17.70;;;;;;;-1.08;100.00;100639.39;109109;1251;72499;-53
2023/12/10 10:53:54;;;;;;;28.00;17.30;;;;;;;-1.10;100.00;100630.02;106065;1251;61027;-52
2023/12/10 10:56:22;;;;;;;31.80;18.70;;;;;;;-1.10;100.00;100632.67;105044;1253;60453;-52
2023/12/10 10:58:50;;;;;;;32.40;19.30;;;;;;;-1.10;100.00;100633.39;104875;1257;74422;-52
2023/12/10 11:01:41;;;;;;;30.00;17.00;;;;;;;-1.09;100.00;100632.69;106154;1251;65988;-53